createdAt,value
2019-04-27T00:01:55.057Z,64.43
2019-04-27T00:04:28.183Z,60.83
2019-04-27T00:07:02.870Z,56.70
2019-04-27T00:09:51.282Z,61.33
2019-04-27T00:12:22.759Z,63.73
2019-04-27T00:14:54.397Z,59.47
2019-04-27T00:17:45.792Z,64.37
2019-04-27T00:20:24.056Z,67.83
2019-04-27T00:22:54.155Z,68.40
2019-04-27T00:25:22.974Z,62.90
2019-04-27T00:27:51.566Z,64.33
2019-04-27T00:30:20.294Z,66.00
2019-04-27T00:32:48.754Z,61.30
2019-04-27T00:35:18.848Z,65.73
2019-04-27T00:37:48.942Z,62.37
2019-04-27T00:40:25.189Z,60.57
2019-04-27T00:42:54.201Z,59.50
2019-04-27T00:45:23.421Z,60.10
2019-04-27T00:47:57.385Z,68.43
2019-04-27T00:50:23.480Z,63.20
2019-04-27T00:52:53.175Z,58.97
2019-04-27T00:55:23.381Z,56.80
2019-04-27T00:58:04.184Z,54.57
2019-04-27T01:00:37.113Z,65.93
2019-04-27T01:03:09.958Z,61.90
2019-04-27T01:05:38.389Z,59.30
2019-04-27T01:08:06.824Z,60.03
2019-04-27T01:10:35.284Z,58.93
2019-04-27T01:13:03.886Z,59.87
2019-04-27T01:15:34.014Z,53.57
2019-04-27T01:18:12.069Z,57.00
2019-04-27T01:20:32.973Z,55.93
2019-04-27T01:23:01.479Z,55.53
2019-04-27T01:25:31.578Z,63.70
2019-04-27T01:28:07.722Z,58.77
2019-04-27T01:30:39.202Z,65.70
2019-04-27T01:33:09.633Z,61.57
2019-04-27T01:35:39.163Z,59.37
2019-04-27T01:38:09.017Z,56.97
2019-04-27T01:40:38.606Z,55.53
2019-04-27T01:43:09.042Z,57.63
2019-04-27T01:45:39.770Z,59.70
2019-04-27T01:48:20.831Z,62.13
2019-04-27T01:50:39.166Z,61.93
2019-04-27T01:53:09.053Z,63.07
2019-04-27T01:55:38.609Z,68.40
2019-04-27T01:58:10.700Z,68.73
2019-04-27T02:00:43.227Z,69.90
2019-04-27T02:03:13.461Z,67.57
2019-04-27T02:05:55.817Z,61.37
2019-04-27T02:08:24.249Z,61.07
2019-04-27T02:10:53.279Z,61.53
2019-04-27T02:13:21.786Z,55.93
2019-04-27T02:15:50.310Z,57.20
2019-04-27T02:18:19.446Z,51.97
2019-04-27T02:20:49.212Z,48.47
2019-04-27T02:23:19.252Z,49.00
2019-04-27T02:25:49.533Z,47.47
2019-04-27T02:28:19.661Z,45.87
2019-04-27T02:31:06.548Z,40.03
2019-04-27T02:33:36.632Z,46.57
2019-04-27T02:36:05.132Z,38.63
2019-04-27T02:38:33.585Z,39.00
2019-04-27T02:41:03.095Z,37.70
2019-04-27T02:43:39.995Z,37.50
2019-04-27T02:46:09.557Z,35.93
2019-04-27T02:48:54.734Z,37.77
2019-04-27T02:51:13.296Z,32.67
2019-04-27T02:53:52.423Z,34.00
2019-04-27T02:56:20.862Z,32.37
2019-04-27T02:58:49.665Z,32.27
2019-04-27T03:01:20.078Z,36.63
2019-04-27T03:03:50.252Z,31.83
2019-04-27T03:06:19.854Z,34.90
2019-04-27T03:08:52.917Z,31.40
2019-04-27T03:11:23.046Z,30.40
2019-04-27T03:13:56.202Z,30.80
2019-04-27T03:16:26.356Z,30.13
2019-04-27T03:19:18.132Z,37.00
2019-04-27T03:21:56.480Z,33.33
2019-04-27T03:24:42.859Z,33.20
2019-04-27T03:27:13.317Z,36.43
2019-04-27T03:29:42.182Z,33.50
2019-04-27T03:32:12.658Z,33.27
2019-04-27T03:34:42.115Z,36.03
2019-04-27T03:37:10.743Z,38.73
2019-04-27T03:39:39.810Z,37.00
2019-04-27T03:42:10.387Z,39.27
2019-04-27T03:44:39.865Z,35.03
2019-04-27T03:47:12.196Z,32.30
2019-04-27T03:49:41.505Z,32.07
2019-04-27T03:52:13.503Z,29.87
2019-04-27T03:54:59.893Z,34.17
2019-04-27T03:57:33.980Z,34.37
2019-04-27T04:00:09.902Z,36.47
2019-04-27T04:02:40.087Z,32.37
2019-04-27T04:05:09.790Z,37.53
2019-04-27T04:07:40.167Z,35.13
2019-04-27T04:10:10.778Z,37.60
2019-04-27T04:12:41.139Z,37.63
2019-04-27T04:15:11.360Z,36.17
2019-04-27T04:17:40.400Z,37.13
2019-04-27T04:20:10.222Z,36.43
2019-04-27T04:22:40.382Z,37.57
2019-04-27T04:25:10.803Z,30.20
2019-04-27T04:27:40.148Z,31.23
2019-04-27T04:30:12.189Z,30.00
2019-04-27T04:32:39.951Z,29.87
2019-04-27T04:35:21.471Z,28.57
2019-04-27T04:37:52.766Z,28.50
2019-04-27T04:40:23.137Z,30.23
2019-04-27T04:43:03.282Z,27.33
2019-04-27T04:45:35.625Z,27.93
2019-04-27T04:48:05.849Z,28.40
2019-04-27T04:50:34.676Z,26.90
2019-04-27T04:53:03.128Z,25.83
2019-04-27T04:55:31.588Z,26.90
2019-04-27T04:58:00.027Z,27.80
2019-04-27T05:00:29.873Z,24.07
2019-04-27T05:02:59.533Z,24.23
2019-04-27T05:05:29.282Z,25.40
2019-04-27T05:08:00.396Z,30.20
2019-04-27T05:10:28.806Z,24.83
2019-04-27T05:12:59.061Z,26.43
2019-04-27T05:15:29.285Z,24.27
2019-04-27T05:17:59.209Z,24.60
2019-04-27T05:20:35.197Z,25.40
2019-04-27T05:23:03.726Z,21.33
2019-04-27T05:25:32.159Z,20.97
2019-04-27T05:28:00.623Z,23.80
2019-04-27T05:30:29.090Z,22.37
2019-04-27T05:32:58.557Z,20.30
2019-04-27T05:35:27.127Z,21.27
2019-04-27T05:37:55.562Z,22.10
2019-04-27T05:40:24.029Z,20.37
2019-04-27T05:42:55.241Z,18.53
2019-04-27T05:45:48.532Z,16.93
2019-04-27T05:48:27.409Z,17.03
2019-04-27T05:50:58.768Z,18.53
2019-04-27T05:53:21.714Z,17.83
2019-04-27T05:55:50.178Z,15.77
2019-04-27T05:58:19.557Z,16.67
2019-04-27T06:00:49.587Z,17.17
2019-04-27T06:03:18.611Z,17.07
2019-04-27T06:05:48.916Z,17.30
2019-04-27T06:08:18.756Z,16.97
2019-04-27T06:10:48.903Z,16.40
2019-04-27T06:13:19.008Z,15.17
2019-04-27T06:15:47.489Z,17.00
2019-04-27T06:18:15.950Z,15.63
2019-04-27T06:20:53.505Z,16.73
2019-04-27T06:23:16.427Z,17.87
2019-04-27T06:25:44.873Z,17.57
2019-04-27T06:28:13.326Z,16.00
2019-04-27T06:30:41.793Z,18.20
2019-04-27T06:33:10.251Z,15.13
2019-04-27T06:35:39.936Z,15.30
2019-04-27T06:38:10.145Z,14.70
2019-04-27T06:40:39.166Z,12.20
2019-04-27T06:43:08.667Z,14.07
2019-04-27T06:45:38.760Z,13.30
2019-04-27T06:48:09.478Z,15.73
2019-04-27T06:50:38.956Z,15.53
2019-04-27T06:53:09.081Z,11.00
2019-04-27T06:55:39.218Z,10.27
2019-04-27T06:58:08.959Z,13.03
2019-04-27T07:00:39.410Z,11.27
2019-04-27T07:03:10.296Z,10.87
2019-04-27T07:05:38.826Z,8.63
2019-04-27T07:08:08.979Z,10.37
2019-04-27T07:10:39.124Z,11.27
2019-04-27T07:13:09.411Z,13.83
2019-04-27T07:15:38.758Z,12.07
2019-04-27T07:18:07.322Z,9.90
2019-04-27T07:20:35.805Z,9.33
2019-04-27T07:23:04.344Z,9.17
2019-04-27T07:25:32.792Z,12.10
2019-04-27T07:28:01.306Z,9.53
2019-04-27T07:30:29.845Z,9.03
2019-04-27T07:32:58.712Z,7.67
2019-04-27T07:35:29.572Z,10.10
2019-04-27T07:37:58.832Z,13.33
2019-04-27T07:40:28.925Z,8.60
2019-04-27T07:43:02.050Z,11.67
2019-04-27T07:45:32.159Z,11.17
2019-04-27T07:48:00.594Z,7.83
2019-04-27T07:50:29.120Z,8.60
2019-04-27T07:52:58.714Z,8.20
2019-04-27T07:55:28.753Z,8.80
2019-04-27T07:57:59.529Z,10.87
2019-04-27T08:00:28.950Z,10.90
2019-04-27T08:02:58.618Z,12.20
2019-04-27T08:05:29.063Z,11.00
2019-04-27T08:07:57.491Z,10.13
2019-04-27T08:10:25.949Z,7.93
2019-04-27T08:12:54.442Z,9.10
2019-04-27T08:15:22.966Z,8.57
2019-04-27T08:17:51.414Z,10.27
2019-04-27T08:20:21.205Z,11.27
2019-04-27T08:22:49.858Z,12.60
2019-04-27T08:25:18.962Z,10.77
2019-04-27T08:28:01.208Z,10.30
2019-04-27T08:30:31.301Z,13.67
2019-04-27T08:33:01.397Z,9.37
2019-04-27T08:35:32.638Z,8.30
2019-04-27T08:38:00.055Z,11.37
2019-04-27T08:40:29.268Z,14.23
2019-04-27T08:42:59.187Z,10.50
2019-04-27T08:45:29.255Z,11.90
2019-04-27T08:47:59.553Z,11.63
2019-04-27T08:50:28.711Z,13.40
2019-04-27T08:52:57.401Z,12.40
2019-04-27T08:55:29.445Z,12.15
2019-04-27T08:57:58.570Z,14.00
2019-04-27T09:00:29.012Z,11.83
2019-04-27T09:02:59.365Z,12.10
2019-04-27T09:05:28.899Z,11.47
2019-04-27T09:08:01.954Z,13.53
2019-04-27T09:10:38.812Z,11.00
2019-04-27T09:13:25.303Z,12.10
2019-04-27T09:16:00.023Z,11.60
2019-04-27T09:18:32.390Z,13.50
2019-04-27T09:21:02.205Z,12.18
2019-04-27T09:23:30.636Z,9.25
2019-04-27T09:25:59.562Z,10.25
2019-04-27T09:28:29.487Z,10.37
2019-04-27T09:30:58.678Z,11.67
2019-04-27T09:33:27.426Z,11.17
2019-04-27T09:35:56.714Z,13.70
2019-04-27T09:38:26.401Z,10.47
2019-04-27T09:40:57.771Z,11.30
2019-04-27T09:43:26.452Z,12.10
2019-04-27T09:45:55.792Z,9.77
2019-04-27T09:48:25.929Z,11.57
2019-04-27T09:50:55.995Z,15.83
2019-04-27T09:53:24.802Z,11.57
2019-04-27T09:55:53.274Z,11.33
2019-04-27T09:58:21.715Z,11.33
2019-04-27T10:00:50.173Z,12.67
2019-04-27T10:03:18.648Z,12.50
2019-04-27T10:05:47.075Z,10.03
2019-04-27T10:08:16.948Z,12.77
2019-04-27T10:10:46.005Z,10.80
2019-04-27T10:13:15.743Z,13.97
2019-04-27T10:15:45.824Z,16.33
2019-04-27T10:18:16.211Z,13.87
2019-04-27T10:20:58.307Z,15.03
2019-04-27T10:23:15.065Z,15.53
2019-04-27T10:25:43.532Z,14.57
2019-04-27T10:28:12.029Z,15.20
2019-04-27T10:30:40.495Z,16.53
2019-04-27T10:33:08.962Z,15.53
2019-04-27T10:35:37.389Z,15.00
2019-04-27T10:38:05.859Z,15.43
2019-04-27T10:40:34.294Z,15.57
2019-04-27T10:43:02.850Z,20.13
2019-04-27T10:45:32.379Z,15.60
2019-04-27T10:48:00.826Z,15.77
2019-04-27T10:50:29.461Z,16.23
2019-04-27T10:52:59.338Z,13.30
2019-04-27T10:55:28.121Z,13.60
2019-04-27T10:57:56.549Z,13.83
2019-04-27T11:00:26.985Z,14.13
2019-04-27T11:02:56.549Z,13.93
2019-04-27T11:05:31.075Z,14.23
2019-04-27T11:07:59.605Z,13.53
2019-04-27T11:10:28.121Z,14.13
2019-04-27T11:12:56.645Z,14.93
2019-04-27T11:15:26.370Z,18.00
2019-04-27T11:17:56.170Z,14.70
2019-04-27T11:20:27.511Z,13.60
2019-04-27T11:23:06.672Z,13.60
2019-04-27T11:25:26.374Z,14.80
2019-04-27T11:27:57.674Z,15.30
2019-04-27T11:30:25.825Z,13.33
2019-04-27T11:32:56.625Z,12.87
2019-04-27T11:35:42.541Z,13.70
2019-04-27T11:38:10.993Z,15.37
2019-04-27T11:40:39.434Z,12.87
2019-04-27T11:43:07.894Z,12.37
2019-04-27T11:45:36.835Z,12.70
2019-04-27T11:48:05.860Z,9.47
2019-04-27T11:50:35.789Z,14.63
2019-04-27T11:53:06.175Z,12.80
2019-04-27T11:55:34.853Z,11.20
2019-04-27T11:58:03.284Z,12.47
2019-04-27T12:00:32.157Z,12.00
2019-04-27T12:03:00.604Z,11.77
2019-04-27T12:05:29.159Z,10.40
2019-04-27T12:07:57.593Z,12.10
2019-04-27T12:10:26.721Z,11.10
2019-04-27T12:12:56.254Z,12.37
2019-04-27T12:15:26.300Z,13.90
2019-04-27T12:17:56.110Z,12.07
2019-04-27T12:20:25.823Z,10.67
2019-04-27T12:22:54.904Z,12.07
2019-04-27T12:25:23.493Z,11.33
2019-04-27T12:27:56.550Z,12.30
2019-04-27T12:30:26.709Z,11.50
2019-04-27T12:32:55.802Z,11.57
2019-04-27T12:35:25.704Z,11.00
2019-04-27T12:37:56.022Z,10.00
2019-04-27T12:40:26.699Z,11.00
2019-04-27T12:42:55.018Z,10.20
2019-04-27T12:45:23.586Z,10.70
2019-04-27T12:47:52.049Z,11.17
2019-04-27T12:50:20.826Z,9.67
2019-04-27T12:52:50.935Z,9.37
2019-04-27T12:55:36.615Z,9.47
2019-04-27T12:58:09.235Z,10.07
2019-04-27T13:00:39.411Z,10.83
2019-04-27T13:03:07.933Z,10.30
2019-04-27T13:05:36.373Z,9.27
2019-04-27T13:08:04.905Z,8.00
2019-04-27T13:10:33.510Z,7.63
2019-04-27T13:13:02.034Z,10.80
2019-04-27T13:15:30.498Z,10.57
2019-04-27T13:17:58.922Z,11.53
2019-04-27T13:20:27.386Z,11.07
2019-04-27T13:22:55.854Z,10.63
2019-04-27T13:25:24.310Z,15.53
2019-04-27T13:27:52.827Z,10.57
2019-04-27T13:30:21.536Z,9.10
2019-04-27T13:32:50.108Z,14.07
2019-04-27T13:35:18.566Z,14.83
2019-04-27T13:37:47.024Z,16.23
2019-04-27T13:40:17.992Z,19.57
2019-04-27T13:43:07.739Z,16.80
2019-04-27T13:45:43.975Z,19.37
2019-04-27T13:48:16.654Z,16.77
2019-04-27T13:50:46.847Z,10.97
2019-04-27T13:53:16.747Z,14.00
2019-04-27T13:55:46.713Z,16.43
2019-04-27T13:58:15.654Z,17.87
2019-04-27T14:00:44.190Z,12.23
2019-04-27T14:03:14.352Z,14.67
2019-04-27T14:05:43.046Z,18.03
2019-04-27T14:08:11.517Z,14.53
2019-04-27T14:10:39.969Z,16.53
2019-04-27T14:13:08.834Z,17.87
2019-04-27T14:15:39.035Z,17.90
2019-04-27T14:18:08.359Z,16.50
2019-04-27T14:20:38.842Z,16.47
2019-04-27T14:23:21.217Z,14.20
2019-04-27T14:25:49.682Z,13.87
2019-04-27T14:28:18.365Z,15.07
2019-04-27T14:30:48.644Z,14.97
2019-04-27T14:33:18.563Z,11.50
2019-04-27T14:35:48.045Z,14.17
2019-04-27T14:38:19.036Z,14.03
2019-04-27T14:40:47.949Z,12.07
2019-04-27T14:43:18.932Z,17.13
2019-04-27T14:45:48.571Z,16.50
2019-04-27T14:48:18.439Z,18.23
2019-04-27T14:50:48.535Z,17.00
2019-04-27T14:53:17.193Z,14.17
2019-04-27T14:55:45.650Z,22.80
2019-04-27T14:58:14.114Z,15.13
2019-04-27T15:00:43.168Z,16.87
2019-04-27T15:03:11.600Z,14.70
2019-04-27T15:05:40.429Z,14.63
2019-04-27T15:08:09.898Z,13.83
2019-04-27T15:10:38.577Z,15.37
2019-04-27T15:13:08.304Z,18.40
2019-04-27T15:15:37.748Z,17.93
2019-04-27T15:18:06.252Z,14.70
2019-04-27T15:20:39.204Z,17.63
2019-04-27T15:23:06.746Z,17.37
2019-04-27T15:25:44.897Z,15.27
2019-04-27T15:28:11.219Z,14.13
2019-04-27T15:30:54.133Z,9.73
2019-04-27T15:33:42.053Z,13.27
2019-04-27T15:36:24.106Z,12.30
2019-04-27T15:38:54.287Z,10.33
2019-04-27T15:41:36.464Z,11.73
2019-04-27T15:44:06.986Z,14.00
2019-04-27T15:46:35.317Z,15.00
2019-04-27T15:49:08.044Z,13.87
2019-04-27T15:51:34.313Z,15.50
2019-04-27T15:54:03.071Z,15.03
2019-04-27T15:56:35.116Z,14.83
2019-04-27T15:59:02.198Z,12.33
2019-04-27T16:01:35.918Z,13.27
2019-04-27T16:04:06.942Z,12.70
2019-04-27T16:06:31.654Z,12.47
2019-04-27T16:09:00.284Z,14.63
2019-04-27T16:11:28.995Z,21.40
2019-04-27T16:13:58.750Z,14.17
2019-04-27T16:16:29.103Z,29.20
2019-04-27T16:18:59.541Z,19.47
2019-04-27T16:21:31.551Z,13.87
2019-04-27T16:23:59.999Z,18.07
2019-04-27T16:26:28.602Z,13.57
2019-04-27T16:28:58.070Z,15.17
2019-04-27T16:31:30.259Z,13.90
2019-04-27T16:33:59.135Z,19.43
2019-04-27T16:36:28.800Z,12.57
2019-04-27T16:38:59.253Z,15.43
2019-04-27T16:41:28.183Z,15.30
2019-04-27T16:43:58.141Z,12.80
2019-04-27T16:46:28.506Z,15.03
2019-04-27T16:48:59.218Z,13.20
2019-04-27T16:51:29.699Z,15.70
2019-04-27T16:53:58.442Z,16.33
2019-04-27T16:56:28.530Z,18.20
2019-04-27T16:59:05.372Z,14.73
2019-04-27T17:01:30.358Z,14.73
2019-04-27T17:03:59.563Z,12.67
2019-04-27T17:06:29.576Z,14.13
2019-04-27T17:09:05.750Z,14.40
2019-04-27T17:11:29.834Z,16.00
2019-04-27T17:14:16.746Z,16.43
2019-04-27T17:16:48.793Z,16.83
2019-04-27T17:19:19.087Z,16.57
2019-04-27T17:21:49.329Z,14.67
2019-04-27T17:24:41.937Z,16.27
2019-04-27T17:27:05.766Z,17.23
2019-04-27T17:29:41.546Z,13.47
2019-04-27T17:32:12.121Z,14.03
2019-04-27T17:34:40.877Z,19.63
2019-04-27T17:37:09.422Z,18.80
2019-04-27T17:39:38.754Z,14.60
2019-04-27T17:42:08.413Z,15.80
2019-04-27T17:44:39.156Z,17.27
2019-04-27T17:47:10.343Z,14.97
2019-04-27T17:49:38.179Z,14.73
2019-04-27T17:52:08.622Z,10.53
2019-04-27T17:54:40.852Z,15.60
2019-04-27T17:57:10.032Z,17.23
2019-04-27T17:59:37.602Z,18.93
2019-04-27T18:02:06.708Z,26.10
2019-04-27T18:04:40.748Z,17.47
2019-04-27T18:07:08.936Z,14.63
2019-04-27T18:09:43.167Z,17.17
2019-04-27T18:12:14.436Z,13.47
2019-04-27T18:14:41.233Z,15.17
2019-04-27T18:17:11.931Z,16.23
2019-04-27T18:19:44.158Z,16.63
2019-04-27T18:22:13.294Z,17.43
2019-04-27T18:24:46.805Z,26.83
2019-04-27T18:27:18.366Z,22.20
2019-04-27T18:29:48.629Z,25.20
2019-04-27T18:32:17.625Z,17.17
2019-04-27T18:34:49.381Z,18.13
2019-04-27T18:37:20.975Z,18.03
2019-04-27T18:39:50.970Z,21.13
2019-04-27T18:42:18.129Z,17.70
2019-04-27T18:44:48.477Z,16.37
2019-04-27T18:47:17.290Z,17.50
2019-04-27T18:50:07.422Z,18.13
2019-04-27T18:52:40.740Z,15.87
2019-04-27T18:55:11.120Z,18.20
2019-04-27T18:57:39.158Z,17.90
2019-04-27T19:00:10.362Z,17.83
2019-04-27T19:02:39.252Z,16.00
2019-04-27T19:05:08.956Z,14.70
2019-04-27T19:07:38.303Z,17.47
2019-04-27T19:10:08.801Z,18.27
2019-04-27T19:12:39.233Z,17.03
2019-04-27T19:15:08.399Z,16.60
2019-04-27T19:17:38.724Z,16.27
2019-04-27T19:20:10.202Z,15.50
2019-04-27T19:22:38.730Z,15.80
2019-04-27T19:25:09.665Z,17.53
2019-04-27T19:27:58.110Z,15.07
2019-04-27T19:30:28.164Z,15.97
2019-04-27T19:32:56.659Z,13.23
2019-04-27T19:35:26.116Z,16.27
2019-04-27T19:37:54.600Z,15.47
2019-04-27T19:40:23.115Z,14.33
2019-04-27T19:42:51.605Z,15.83
2019-04-27T19:45:21.163Z,14.37
2019-04-27T19:47:51.686Z,16.17
2019-04-27T19:50:20.099Z,12.83
2019-04-27T19:52:50.326Z,15.20
2019-04-27T19:55:19.063Z,16.73
2019-04-27T19:57:49.617Z,15.60
2019-04-27T20:00:29.646Z,17.87
2019-04-27T20:03:00.052Z,19.07
2019-04-27T20:05:31.230Z,16.87
2019-04-27T20:08:01.510Z,18.90
2019-04-27T20:10:34.068Z,22.33
2019-04-27T20:13:00.869Z,27.50
2019-04-27T20:15:29.586Z,16.07
2019-04-27T20:17:58.253Z,14.60
2019-04-27T20:20:26.730Z,13.57
2019-04-27T20:22:55.299Z,13.57
2019-04-27T20:25:24.023Z,14.37
2019-04-27T20:27:52.568Z,18.17
2019-04-27T20:30:21.174Z,13.97
2019-04-27T20:32:51.076Z,13.57
2019-04-27T20:35:21.865Z,15.03
2019-04-27T20:37:51.716Z,13.45
2019-04-27T20:40:21.811Z,14.67
2019-04-27T20:42:51.568Z,13.50
2019-04-27T20:45:20.575Z,14.60
2019-04-27T20:47:52.353Z,15.43
2019-04-27T20:50:19.214Z,14.87
2019-04-27T20:52:49.312Z,13.37
2019-04-27T20:55:17.756Z,12.03
2019-04-27T20:57:58.397Z,13.77
2019-04-27T21:00:19.296Z,13.73
2019-04-27T21:02:49.469Z,13.80
2019-04-27T21:05:34.839Z,11.93
2019-04-27T21:08:11.709Z,12.80
2019-04-27T21:10:41.295Z,12.60
2019-04-27T21:13:11.240Z,12.83
2019-04-27T21:15:41.699Z,13.53
2019-04-27T21:18:11.519Z,13.77
2019-04-27T21:20:41.185Z,15.27
2019-04-27T21:23:11.879Z,15.30
2019-04-27T21:25:41.855Z,17.77
2019-04-27T21:28:17.339Z,16.10
2019-04-27T21:30:40.406Z,16.23
2019-04-27T21:33:08.835Z,14.70
2019-04-27T21:35:37.305Z,17.47
2019-04-27T21:38:05.734Z,20.20
2019-04-27T21:40:34.262Z,21.07
2019-04-27T21:43:05.069Z,17.63
2019-04-27T21:45:33.501Z,18.23
2019-04-27T21:48:02.907Z,18.40
2019-04-27T21:50:31.602Z,17.90
2019-04-27T21:53:04.425Z,16.33
2019-04-27T21:55:34.592Z,16.57
2019-04-27T21:58:03.041Z,15.60
2019-04-27T22:00:38.588Z,14.80
2019-04-27T22:03:07.230Z,17.33
2019-04-27T22:05:35.694Z,17.13
2019-04-27T22:08:04.202Z,18.43
2019-04-27T22:10:32.663Z,15.53
2019-04-27T22:13:01.908Z,19.63
2019-04-27T22:15:31.379Z,17.57
2019-04-27T22:18:00.715Z,18.10
2019-04-27T22:20:32.401Z,15.93
2019-04-27T22:23:05.642Z,21.70
2019-04-27T22:25:35.990Z,19.20
2019-04-27T22:28:04.624Z,17.80
2019-04-27T22:30:33.050Z,16.77
2019-04-27T22:33:01.597Z,19.77
2019-04-27T22:35:31.281Z,19.93
2019-04-27T22:38:01.848Z,16.23
2019-04-27T22:40:37.494Z,18.43
2019-04-27T22:43:11.799Z,20.03
2019-04-27T22:45:42.318Z,19.37
2019-04-27T22:48:11.275Z,21.80
2019-04-27T22:50:41.361Z,19.30
2019-04-27T22:53:09.909Z,21.73
2019-04-27T22:55:41.228Z,21.57
2019-04-27T22:58:17.027Z,19.10
2019-04-27T23:01:03.356Z,17.13
2019-04-27T23:03:33.522Z,18.17
2019-04-27T23:06:02.146Z,15.33
2019-04-27T23:08:31.227Z,19.10
2019-04-27T23:11:00.577Z,22.37
2019-04-27T23:13:30.858Z,19.60
2019-04-27T23:16:01.575Z,18.00
2019-04-27T23:18:31.178Z,17.00
2019-04-27T23:21:01.567Z,18.50
2019-04-27T23:23:30.995Z,18.87
2019-04-27T23:26:01.624Z,16.93
2019-04-27T23:28:31.285Z,18.70
2019-04-27T23:31:02.547Z,18.07
2019-04-27T23:33:31.255Z,23.50
2019-04-27T23:36:01.434Z,19.30
2019-04-27T23:38:30.957Z,21.93
2019-04-27T23:41:01.658Z,19.60
2019-04-27T23:43:29.869Z,22.17
2019-04-27T23:45:59.309Z,20.20
2019-04-27T23:48:27.759Z,16.70
2019-04-27T23:50:57.834Z,21.80
2019-04-27T23:53:27.930Z,20.13
2019-04-27T23:55:56.397Z,24.70
2019-04-27T23:58:24.854Z,18.17
